Centenario do Sul, Brazil
Current Conditions -  °F | °C
As of 1:00 PM on Sunday 21 Dec 2014 (Local Time) from SBLO Reporting Station
Broken Clouds Broken Clouds  
Wind Chill: 82°   Ceiling: 2000
Heat Index: 88°   Visibility: 6mi
Dew Point: 73°   Wind: 13mph
Humidity: 74%   Direction: 330°NNW
Pressure: 29.88"   Gusts: NA
Location:  22.82°S, 51.6°W
Report Text: SBLO 211500Z 33011KT 9999 BKN020 SCT025 28/23 Q1012
Loading
Personal Weather Stations






























Interactive Weather Map New forecast layout! Learn more

10-Day Weather Forecast

Advertisements
Track Severe Weather on mobile